SVMG/PMV METAR and TAF weather

Enter ICAO airport designator
Station Type Date Time Source
SVMG METAR 2022/06/25 22:03 UTC NOAA

SVMG 252203Z AUTO 09019KT NCD 34/23 Q1012


Station Type Date Time Source
SVMG Decoded METAR 2022/06/25 22:03 UTC NOAA

Margarita / Del Carib, Venezuela (SVMG) 10-55N 063-59W
Jun 25, 2022 - 06:03 PM EDT / 2022.06.25 2203 UTC
Wind: from the E (090 degrees) at 22 MPH (19 KT):0
Temperature: 93 F (34 C)
Heat index: 101.8 F (38.8 C):1
Dew Point: 73 F (23 C)
Relative Humidity: 52%
Pressure (altimeter): 29.88 in. Hg (1012 hPa)
ob: SVMG 252203Z AUTO 09019KT NCD 34/23 Q1012
cycle: 22

Station Type Date Time Source
SVMG TAF 2022/06/25 18:04 UTC NOAA

TAF SVMG 251600Z 2518/2618 08012KT 9999 SCT016 TX31/2518Z TN26/2608Z
BECMG 2518/2522 07010KT 9000 -DZ BKN016

Example: see airport list